METAR Data
IDs: Format: Raw Decoded Include TAF

Data at: 1158 UTC 16 Oct 2018

PAMK 161156Z AUTO 10008KT 10SM -RA 04/03 A2921 RMK AO2 SLP896 P0001 60006 70009 T00390028 10050 20039 55006 $
PAMK 161056Z AUTO 07015KT 10SM -RA 04/02 A2921 RMK AO2 SLP894 P0004 T00440017 $
PAMK 160956Z AUTO 06018G22KT 10SM -RA 05/01 A2921 RMK AO2 PK WND 06026/0930 SLP896 P0001 T00500011 $
PAMK 160856Z AUTO 06020KT 10SM -RA 05/01 A2923 RMK AO2 SLP902 P0000 60000 T00500011 400610039 56013 $
PAMK 160756Z AUTO 06017KT 10SM -RA 05/01 A2924 RMK AO2 RAB48 SLP906 P0000 T00500011 $
PAMK 160656Z AUTO 05018G25KT 10SM 05/02 A2925 RMK AO2 RAB07E20 SLP909 P0000 T00500017 $
PAMK 160556Z AUTO 06018G24KT 10SM 05/01 A2927 RMK AO2 PK WND 05026/0500 RAE46 SLP915 P0001 60002 T00500011 10061 20050 58008 $
PAMK 160456Z AUTO 06019KT 6SM -RA BR 05/03 A2928 RMK AO2 RAB11 SLP919 P0001 T00500028 $
PAMK 160356Z AUTO 06015KT 10SM 06/02 A2930 RMK AO2 SLP924 T00560022 $
PAMK 160256Z AUTO 06017KT 10SM 06/01 A2929 RMK AO2 SLP924 60000 T00610006 56025 $
PAMK 160156Z AUTO 05020G23KT 10SM 06/01 A2931 RMK AO2 SLP929 T00610011 $
PAMK 160056Z AUTO 05020G23KT 10SM 06/02 A2934 RMK AO2 RAB19E41 SLP938 P0000 T00560017 $
PAMK 152356Z AUTO 06019G26KT 10SM 06/02 A2937 RMK AO2 PK WND 06026/2348 SLP948 60001 T00560022 10056 20044 56030 $
PAMK 152256Z AUTO 06014KT 10SM 06/02 A2940 RMK AO2 PK WND 06026/2216 RAB04E28 SLP958 P0000 T00560022 $
PAMK 152156Z AUTO 05018G22KT 10SM 05/02 A2942 RMK AO2 RAE44 SLP968 P0001 T00500022 $
PAMK 151956Z AUTO 08015KT 10SM -RA 05/01 A2947 RMK AO2 RAB39 SLP984 P0000 T00500011 $
PAMK 151856Z AUTO 07018G23KT 10SM 06/02 A2949 RMK AO2 PK WND 06026/1808 SLP988 T00560017 $
PAMK 151756Z AUTO 06019KT 10SM 06/02 A2949 RMK AO2 SLP991 T00560017 10061 20056 58008 $
PAMK 151656Z AUTO 06018KT 10SM 06/02 A2950 RMK AO2 SLP995 T00560017 $
PAMK 151556Z AUTO 06019KT 10SM 06/02 A2953 RMK AO2 SLP002 T00560022 $
PAMK 151456Z AUTO 06020KT 10SM 06/02 A2952 RMK AO2 SLP999 T00560022 58021 $
PAMK 151356Z AUTO 05019G25KT 10SM 06/03 A2954 RMK AO2 SLP007 T00560033 $
PAMK 151256Z AUTO 06017KT 10SM 06/03 A2956 RMK AO2 SLP015 T00560028 $
PAMK 151156Z AUTO 07015G23KT 10SM 06/02 A2958 RMK AO2 SLP020 T00560022 10056 20033 58023 $
PAMK 151056Z AUTO 08011KT 10SM 05/03 A2961 RMK AO2 SLP032 T00500028 $
PAMK 150956Z AUTO 11007KT 10SM 04/02 A2965 RMK AO2 SLP043 T00390017 $
PAMK 150856Z AUTO 09011KT 10SM 04/02 A2965 RMK AO2 SLP043 T00440017 400890022 58007 $
PAMK 150756Z AUTO 10012KT 10SM 04/02 A2966 RMK AO2 SLP047 T00440017 $
PAMK 150656Z AUTO 11007KT 10SM 03/02 A2966 RMK AO2 SLP048 T00330022 $
PAMK 150556Z AUTO 13008KT 10SM 04/02 A2967 RMK AO2 SLP051 T00440022 10089 20044 50002 $
PAMK 150456Z AUTO 09015KT 10SM 06/03 A2967 RMK AO2 SLP051 T00610028 $
PAMK 150356Z AUTO 08014KT 10SM 07/04 A2967 RMK AO2 SLP051 T00670039 $
PAMK 150256Z AUTO 07014KT 10SM 07/04 A2966 RMK AO2 SLP048 T00720044 56013 $
PAMK 150156Z AUTO 08012KT 10SM 08/04 A2967 RMK AO2 SLP052 T00780044 $
PAMK 150056Z AUTO 07012KT 10SM 08/04 A2968 RMK AO2 SLP055 T00830039 $